Time,TemperatureF,DewpointF,PressureIn,WindDirection,WindDirectionDegrees,WindSpeedMPH,WindSpeedGustMPH,Humidity,HourlyPrecipIn,Conditions,Clouds,dailyrainin,SoftwareType,DateUTC
2013-04-08 00:00:00,46.1,43.0,30.04,ESE,109,2.0,2.0,89,0.00,,,0.00,Wunderground v.1.15,2013-04-08 04:00:00,
2013-04-08 00:05:00,46.0,42.9,30.04,SW,235,2.0,3.0,89,0.00,,,0.00,Wunderground v.1.15,2013-04-08 04:05:00,
2013-04-08 00:15:00,45.9,43.1,30.04,SE,144,2.0,15.0,90,0.00,,,0.00,Wunderground v.1.15,2013-04-08 04:15:00,
2013-04-08 00:20:00,45.9,43.1,30.03,SE,127,2.0,15.0,90,0.00,,,0.00,Wunderground v.1.15,2013-04-08 04:20:00,
2013-04-08 00:25:00,45.9,43.1,30.03,SE,144,2.0,15.0,90,0.00,,,0.00,Wunderground v.1.15,2013-04-08 04:25:00,
2013-04-08 00:30:00,45.8,43.0,30.03,SSW,195,2.0,2.0,90,0.00,,,0.00,Wunderground v.1.15,2013-04-08 04:30:00,
2013-04-08 00:35:00,45.7,43.2,30.03,South,181,1.0,15.0,91,0.00,,,0.00,Wunderground v.1.15,2013-04-08 04:35:00,
2013-04-08 00:45:00,45.6,43.1,30.03,SE,144,1.0,15.0,91,0.00,,,0.00,Wunderground v.1.15,2013-04-08 04:45:00,
2013-04-08 00:55:00,45.4,42.9,30.03,ESE,120,1.0,15.0,91,0.00,,,0.00,Wunderground v.1.15,2013-04-08 04:55:00,
2013-04-08 01:05:00,45.3,43.1,30.02,SE,133,1.0,15.0,92,0.00,,,0.00,Wunderground v.1.15,2013-04-08 05:05:00,
2013-04-08 01:15:00,45.2,43.0,30.02,ESE,111,1.0,15.0,92,0.00,,,0.00,Wunderground v.1.15,2013-04-08 05:15:00,
2013-04-08 01:25:00,45.1,42.9,30.02,SSE,156,1.0,15.0,92,0.00,,,0.00,Wunderground v.1.15,2013-04-08 05:25:00,
2013-04-08 01:30:00,45.1,42.9,30.02,SE,139,1.0,1.0,92,0.00,,,0.00,Wunderground v.1.15,2013-04-08 05:30:00,
2013-04-08 01:40:00,44.8,42.6,30.02,SE,133,0.0,15.0,92,0.00,,,0.00,Wunderground v.1.15,2013-04-08 05:40:00,
2013-04-08 01:50:00,44.3,42.4,30.01,SE,133,0.0,15.0,93,0.00,,,0.00,Wunderground v.1.15,2013-04-08 05:50:00,
2013-04-08 02:00:00,44.0,42.1,30.01,SE,134,0.0,15.0,93,0.00,,,0.00,Wunderground v.1.15,2013-04-08 06:00:00,
2013-04-08 02:10:00,43.8,42.2,30.01,SE,136,0.0,15.0,94,0.00,,,0.00,Wunderground v.1.15,2013-04-08 06:10:00,
2013-04-08 02:15:00,43.6,42.0,30.00,SE,139,0.0,15.0,94,0.00,,,0.00,Wunderground v.1.15,2013-04-08 06:15:00,
2013-04-08 02:25:00,43.5,41.9,30.00,SE,142,0.0,15.0,94,0.00,,,0.00,Wunderground v.1.15,2013-04-08 06:25:00,
2013-04-08 02:30:00,43.5,41.9,30.00,SE,137,0.0,15.0,94,0.00,,,0.00,Wunderground v.1.15,2013-04-08 06:30:00,
2013-04-08 02:40:00,43.4,42.1,30.00,SE,136,1.0,1.0,95,0.00,,,0.00,Wunderground v.1.15,2013-04-08 06:40:00,
2013-04-08 02:50:00,43.2,41.9,30.00,SE,135,0.0,15.0,95,0.00,,,0.00,Wunderground v.1.15,2013-04-08 06:50:00,
2013-04-08 03:00:00,42.9,41.6,29.99,SE,137,0.0,15.0,95,0.00,,,0.00,Wunderground v.1.15,2013-04-08 07:00:00,
2013-04-08 03:05:00,42.7,41.4,29.99,SE,136,0.0,15.0,95,0.00,,,0.00,Wunderground v.1.15,2013-04-08 07:05:00,
2013-04-08 03:15:00,42.6,41.3,29.99,SSE,148,0.0,15.0,95,0.00,,,0.00,Wunderground v.1.15,2013-04-08 07:15:00,
2013-04-08 03:25:00,42.3,41.0,29.99,SSE,151,0.0,15.0,95,0.00,,,0.00,Wunderground v.1.15,2013-04-08 07:25:00,
2013-04-08 03:35:00,42.1,41.0,29.99,SSE,151,0.0,15.0,96,0.00,,,0.00,Wunderground v.1.15,2013-04-08 07:35:00,
2013-04-08 03:45:00,42.2,41.1,29.99,SSE,151,0.0,15.0,96,0.00,,,0.00,Wunderground v.1.15,2013-04-08 07:45:00,
2013-04-08 03:55:00,42.0,40.9,29.99,SSE,148,0.0,15.0,96,0.00,,,0.00,Wunderground v.1.15,2013-04-08 07:55:00,
2013-04-08 04:05:00,41.8,40.7,29.99,SSE,154,0.0,15.0,96,0.00,,,0.00,Wunderground v.1.15,2013-04-08 08:05:00,
2013-04-08 04:10:00,41.7,40.6,29.99,SSE,153,0.0,15.0,96,0.00,,,0.00,Wunderground v.1.15,2013-04-08 08:10:00,
2013-04-08 04:20:00,41.9,40.8,29.98,SE,144,0.0,15.0,96,0.00,,,0.00,Wunderground v.1.15,2013-04-08 08:20:00,
2013-04-08 04:25:00,41.6,40.5,29.98,SE,143,0.0,15.0,96,0.00,,,0.00,Wunderground v.1.15,2013-04-08 08:25:00,
2013-04-08 04:35:00,41.6,40.5,29.98,SE,144,0.0,15.0,96,0.00,,,0.00,Wunderground v.1.15,2013-04-08 08:35:00,
2013-04-08 04:45:00,41.8,41.0,29.98,SE,145,0.0,15.0,97,0.00,,,0.00,Wunderground v.1.15,2013-04-08 08:45:00,
2013-04-08 04:55:00,41.9,41.1,29.98,SE,145,0.0,15.0,97,0.00,,,0.00,Wunderground v.1.15,2013-04-08 08:55:00,
2013-04-08 05:05:00,42.3,41.5,29.99,SE,145,0.0,15.0,97,0.00,,,0.00,Wunderground v.1.15,2013-04-08 09:05:00,
2013-04-08 05:15:00,42.1,41.3,29.99,SSE,155,0.0,15.0,97,0.00,,,0.00,Wunderground v.1.15,2013-04-08 09:15:00,
2013-04-08 05:20:00,41.9,40.8,29.99,SSE,153,0.0,15.0,96,0.00,,,0.00,Wunderground v.1.15,2013-04-08 09:20:00,
2013-04-08 05:30:00,41.5,40.4,29.99,SE,139,0.0,15.0,96,0.00,,,0.00,Wunderground v.1.15,2013-04-08 09:30:00,
2013-04-08 05:40:00,41.6,40.8,29.99,SE,139,0.0,15.0,97,0.00,,,0.00,Wunderground v.1.15,2013-04-08 09:40:00,
2013-04-08 05:50:00,41.5,40.7,30.00,West,277,0.0,15.0,97,0.00,,,0.00,Wunderground v.1.15,2013-04-08 09:50:00,
2013-04-08 06:00:00,41.5,40.7,30.00,West,277,0.0,15.0,97,0.00,,,0.00,Wunderground v.1.15,2013-04-08 10:00:00,
2013-04-08 06:10:00,41.6,40.8,30.00,West,277,0.0,15.0,97,0.00,,,0.00,Wunderground v.1.15,2013-04-08 10:10:00,
2013-04-08 06:15:00,41.5,40.7,30.00,West,277,0.0,15.0,97,0.00,,,0.00,Wunderground v.1.15,2013-04-08 10:15:00,
2013-04-08 06:25:00,41.3,40.5,30.01,West,277,0.0,15.0,97,0.00,,,0.00,Wunderground v.1.15,2013-04-08 10:25:00,
2013-04-08 06:35:00,41.4,40.6,30.01,West,277,0.0,15.0,97,0.00,,,0.00,Wunderground v.1.15,2013-04-08 10:35:00,
2013-04-08 06:45:00,41.1,40.3,30.02,West,277,0.0,15.0,97,0.00,,,0.00,Wunderground v.1.15,2013-04-08 10:45:00,
2013-04-08 06:55:00,41.0,40.2,30.02,West,277,0.0,15.0,97,0.00,,,0.00,Wunderground v.1.15,2013-04-08 10:55:00,
2013-04-08 07:00:00,40.9,40.1,30.03,West,277,0.0,15.0,97,0.00,,,0.00,Wunderground v.1.15,2013-04-08 11:00:00,
2013-04-08 07:10:00,41.1,40.3,30.03,West,277,0.0,15.0,97,0.00,,,0.00,Wunderground v.1.15,2013-04-08 11:10:00,
2013-04-08 07:20:00,41.2,40.4,30.03,West,277,0.0,15.0,97,0.00,,,0.00,Wunderground v.1.15,2013-04-08 11:20:00,
2013-04-08 07:25:00,41.2,40.4,30.03,West,277,0.0,15.0,97,0.00,,,0.00,Wunderground v.1.15,2013-04-08 11:25:00,
2013-04-08 07:30:00,41.3,40.5,30.03,West,277,0.0,15.0,97,0.00,,,0.00,Wunderground v.1.15,2013-04-08 11:30:00,
2013-04-08 07:40:00,41.4,40.6,30.04,WNW,301,0.0,15.0,97,0.00,,,0.00,Wunderground v.1.15,2013-04-08 11:40:00,
2013-04-08 07:55:00,43.5,42.7,30.04,ENE,73,0.0,15.0,97,0.00,,,0.00,Wunderground v.1.15,2013-04-08 11:55:00,
2013-04-08 08:05:00,44.2,43.4,30.04,ENE,70,0.0,15.0,97,0.00,,,0.00,Wunderground v.1.15,2013-04-08 12:05:00,
2013-04-08 08:15:00,45.3,44.5,30.04,ENE,66,0.0,15.0,97,0.00,,,0.00,Wunderground v.1.15,2013-04-08 12:15:00,
2013-04-08 08:25:00,46.9,44.7,30.03,NNE,30,1.0,15.0,92,0.00,,,0.00,Wunderground v.1.15,2013-04-08 12:25:00,
2013-04-08 08:35:00,48.2,43.3,30.03,NW,314,1.0,2.0,83,0.00,,,0.00,Wunderground v.1.15,2013-04-08 12:35:00,
2013-04-08 08:45:00,49.4,42.1,30.03,NNW,338,3.0,15.0,76,0.00,,,0.00,Wunderground v.1.15,2013-04-08 12:45:00,
2013-04-08 08:50:00,49.5,41.6,30.04,NW,319,3.0,15.0,74,0.00,,,0.00,Wunderground v.1.15,2013-04-08 12:50:00,
2013-04-08 09:00:00,49.4,41.5,30.04,NW,309,2.0,15.0,74,0.00,,,0.00,Wunderground v.1.15,2013-04-08 13:00:00,
2013-04-08 09:10:00,49.5,41.6,30.04,NW,321,3.0,3.0,74,0.00,,,0.00,Wunderground v.1.15,2013-04-08 13:10:00,
2013-04-08 09:20:00,50.0,42.0,30.04,WNW,294,3.0,3.0,74,0.00,,,0.00,Wunderground v.1.15,2013-04-08 13:20:00,
2013-04-08 09:30:00,51.3,42.2,30.05,WNW,296,2.0,15.0,71,0.00,,,0.00,Wunderground v.1.15,2013-04-08 13:30:00,
2013-04-08 09:40:00,52.3,41.3,30.05,WNW,292,3.0,3.0,66,0.00,,,0.00,Wunderground v.1.15,2013-04-08 13:40:00,
2013-04-08 09:50:00,53.0,40.7,30.05,WNW,291,4.0,4.0,63,0.00,,,0.00,Wunderground v.1.15,2013-04-08 13:50:00,
2013-04-08 09:55:00,52.8,40.5,30.05,WNW,290,4.0,15.0,63,0.00,,,0.00,Wunderground v.1.15,2013-04-08 13:55:00,
2013-04-08 10:05:00,53.6,40.9,30.05,WNW,303,3.0,15.0,62,0.00,,,0.00,Wunderground v.1.15,2013-04-08 14:05:00,
2013-04-08 10:10:00,54.2,41.5,30.06,NW,316,2.0,15.0,62,0.00,,,0.00,Wunderground v.1.15,2013-04-08 14:10:00,
2013-04-08 10:20:00,54.7,41.1,30.06,NW,321,4.0,15.0,60,0.00,,,0.00,Wunderground v.1.15,2013-04-08 14:20:00,
2013-04-08 10:30:00,55.1,41.0,30.06,NNW,343,4.0,15.0,59,0.00,,,0.00,Wunderground v.1.15,2013-04-08 14:30:00,
2013-04-08 10:40:00,56.4,41.3,30.06,WNW,297,3.0,15.0,57,0.00,,,0.00,Wunderground v.1.15,2013-04-08 14:40:00,
2013-04-08 10:50:00,57.2,41.6,30.06,North,352,3.0,15.0,56,0.00,,,0.00,Wunderground v.1.15,2013-04-08 14:50:00,
2013-04-08 11:00:00,57.6,41.5,30.06,NW,312,4.0,15.0,55,0.00,,,0.00,Wunderground v.1.15,2013-04-08 15:00:00,
2013-04-08 11:10:00,58.1,41.5,30.06,WNW,287,3.0,15.0,54,0.00,,,0.00,Wunderground v.1.15,2013-04-08 15:10:00,
2013-04-08 11:20:00,58.5,41.9,30.06,West,262,4.0,15.0,54,0.00,,,0.00,Wunderground v.1.15,2013-04-08 15:20:00,
2013-04-08 11:30:00,58.7,41.1,30.06,NNW,333,4.0,4.0,52,0.00,,,0.00,Wunderground v.1.15,2013-04-08 15:30:00,
2013-04-08 11:40:00,59.5,41.3,30.05,WNW,301,3.0,15.0,51,0.00,,,0.00,Wunderground v.1.15,2013-04-08 15:40:00,
2013-04-08 11:50:00,60.6,41.8,30.05,WNW,297,3.0,3.0,50,0.00,,,0.00,Wunderground v.1.15,2013-04-08 15:50:00,
2013-04-08 12:00:00,60.8,41.0,30.05,WNW,283,3.0,3.0,48,0.00,,,0.00,Wunderground v.1.15,2013-04-08 16:00:00,
2013-04-08 12:10:00,60.7,40.3,30.05,North,358,3.0,15.0,47,0.00,,,0.00,Wunderground v.1.15,2013-04-08 16:10:00,
2013-04-08 12:15:00,61.0,40.6,30.05,WNW,302,4.0,15.0,47,0.00,,,0.00,Wunderground v.1.15,2013-04-08 16:15:00,
2013-04-08 12:25:00,61.4,40.4,30.05,WNW,288,4.0,15.0,46,0.00,,,0.00,Wunderground v.1.15,2013-04-08 16:25:00,
2013-04-08 12:35:00,62.0,40.4,30.05,WNW,300,3.0,15.0,45,0.00,,,0.00,Wunderground v.1.15,2013-04-08 16:35:00,
2013-04-08 12:45:00,61.8,39.6,30.05,North,352,4.0,15.0,44,0.00,,,0.00,Wunderground v.1.15,2013-04-08 16:45:00,
2013-04-08 12:55:00,61.9,39.1,30.05,NNW,336,4.0,15.0,43,0.00,,,0.00,Wunderground v.1.15,2013-04-08 16:55:00,
2013-04-08 13:00:00,62.4,39.6,30.05,WNW,298,4.0,4.0,43,0.00,,,0.00,Wunderground v.1.15,2013-04-08 17:00:00,
2013-04-08 13:10:00,63.3,38.6,30.05,NNW,328,2.0,15.0,40,0.00,,,0.00,Wunderground v.1.15,2013-04-08 17:10:00,
2013-04-08 13:20:00,63.2,39.7,30.05,WNW,294,3.0,15.0,42,0.00,,,0.00,Wunderground v.1.15,2013-04-08 17:20:00,
2013-04-08 13:25:00,63.4,38.6,30.05,ENE,57,3.0,15.0,40,0.00,,,0.00,Wunderground v.1.15,2013-04-08 17:25:00,
2013-04-08 13:35:00,63.6,38.8,30.05,WNW,300,2.0,15.0,40,0.00,,,0.00,Wunderground v.1.15,2013-04-08 17:35:00,
2013-04-08 13:50:00,63.8,39.0,30.05,WNW,300,3.0,15.0,40,0.00,,,0.00,Wunderground v.1.15,2013-04-08 17:50:00,
2013-04-08 13:55:00,64.1,40.5,30.05,NW,313,3.0,15.0,42,0.00,,,0.00,Wunderground v.1.15,2013-04-08 17:55:00,
2013-04-08 14:05:00,64.4,39.5,30.04,NNE,16,2.0,15.0,40,0.00,,,0.00,Wunderground v.1.15,2013-04-08 18:05:00,
2013-04-08 14:15:00,63.5,40.0,30.04,NNE,18,3.0,15.0,42,0.00,,,0.00,Wunderground v.1.15,2013-04-08 18:15:00,
2013-04-08 14:25:00,64.0,39.8,30.04,NW,321,3.0,4.0,41,0.00,,,0.00,Wunderground v.1.15,2013-04-08 18:25:00,
2013-04-08 14:35:00,63.9,39.1,30.03,ENE,72,3.0,15.0,40,0.00,,,0.00,Wunderground v.1.15,2013-04-08 18:35:00,
2013-04-08 14:45:00,64.0,39.8,30.03,NNE,23,2.0,4.0,41,0.00,,,0.00,Wunderground v.1.15,2013-04-08 18:45:00,
2013-04-08 14:55:00,65.0,38.8,30.03,WSW,250,3.0,15.0,38,0.00,,,0.00,Wunderground v.1.15,2013-04-08 18:55:00,
2013-04-08 15:05:00,65.6,39.3,30.02,NW,317,2.0,4.0,38,0.00,,,0.00,Wunderground v.1.15,2013-04-08 19:05:00,
2013-04-08 15:15:00,65.9,39.6,30.02,WNW,293,3.0,15.0,38,0.00,,,0.00,Wunderground v.1.15,2013-04-08 19:15:00,
2013-04-08 15:20:00,66.0,38.3,30.02,North,4,3.0,15.0,36,0.00,,,0.00,Wunderground v.1.15,2013-04-08 19:20:00,
2013-04-08 15:25:00,65.8,38.8,30.02,NNE,23,3.0,15.0,37,0.00,,,0.00,Wunderground v.1.15,2013-04-08 19:25:00,
2013-04-08 15:35:00,65.5,39.2,30.02,NW,311,2.0,15.0,38,0.00,,,0.00,Wunderground v.1.15,2013-04-08 19:35:00,
2013-04-08 15:40:00,65.8,38.8,30.02,WNW,297,2.0,15.0,37,0.00,,,0.00,Wunderground v.1.15,2013-04-08 19:40:00,
2013-04-08 15:50:00,66.7,38.9,30.02,WNW,301,2.0,15.0,36,0.00,,,0.00,Wunderground v.1.15,2013-04-08 19:50:00,
2013-04-08 16:00:00,66.7,38.2,30.01,WNW,293,4.0,4.0,35,0.00,,,0.00,Wunderground v.1.15,2013-04-08 20:00:00,
2013-04-08 16:05:00,66.8,39.0,30.01,WNW,293,3.0,15.0,36,0.00,,,0.00,Wunderground v.1.15,2013-04-08 20:05:00,
2013-04-08 16:15:00,67.0,38.4,30.01,NE,51,3.0,15.0,35,0.00,,,0.00,Wunderground v.1.15,2013-04-08 20:15:00,
2013-04-08 16:25:00,67.3,39.4,30.00,WNW,298,2.0,15.0,36,0.00,,,0.00,Wunderground v.1.15,2013-04-08 20:25:00,
2013-04-08 16:35:00,67.4,39.5,30.01,ESE,120,1.0,15.0,36,0.00,,,0.00,Wunderground v.1.15,2013-04-08 20:35:00,
2013-04-08 16:40:00,67.7,39.8,30.01,SW,225,1.0,1.0,36,0.00,,,0.00,Wunderground v.1.15,2013-04-08 20:40:00,
2013-04-08 16:50:00,66.8,43.0,30.01,ESE,104,1.0,15.0,42,0.00,,,0.00,Wunderground v.1.15,2013-04-08 20:50:00,
2013-04-08 17:00:00,66.0,42.9,30.01,SE,139,3.0,3.0,43,0.00,,,0.00,Wunderground v.1.15,2013-04-08 21:00:00,
2013-04-08 17:10:00,66.6,42.8,30.01,WSW,240,2.0,2.0,42,0.00,,,0.00,Wunderground v.1.15,2013-04-08 21:10:00,
2013-04-08 17:20:00,66.9,42.4,30.01,SE,143,2.0,2.0,41,0.00,,,0.00,Wunderground v.1.15,2013-04-08 21:20:00,
2013-04-08 17:30:00,65.9,42.1,30.02,ESE,111,2.0,15.0,42,0.00,,,0.00,Wunderground v.1.15,2013-04-08 21:30:00,
2013-04-08 17:40:00,65.3,42.2,30.01,SSE,160,2.0,15.0,43,0.00,,,0.00,Wunderground v.1.15,2013-04-08 21:40:00,
2013-04-08 17:50:00,64.9,42.5,30.02,SE,132,2.0,15.0,44,0.00,,,0.00,Wunderground v.1.15,2013-04-08 21:50:00,
2013-04-08 18:00:00,64.5,42.1,30.02,SE,137,2.0,2.0,44,0.00,,,0.00,Wunderground v.1.15,2013-04-08 22:00:00,
2013-04-08 18:10:00,64.1,41.7,30.02,SSE,148,2.0,2.0,44,0.00,,,0.00,Wunderground v.1.15,2013-04-08 22:10:00,
2013-04-08 18:15:00,64.0,41.6,30.03,SSE,159,1.0,15.0,44,0.00,,,0.00,Wunderground v.1.15,2013-04-08 22:15:00,
2013-04-08 18:20:00,63.9,42.1,30.03,SE,134,1.0,15.0,45,0.00,,,0.00,Wunderground v.1.15,2013-04-08 22:20:00,
2013-04-08 18:30:00,63.3,42.2,30.03,SE,146,2.0,15.0,46,0.00,,,0.00,Wunderground v.1.15,2013-04-08 22:30:00,
2013-04-08 18:40:00,62.4,42.4,30.02,SE,134,2.0,2.0,48,0.00,,,0.00,Wunderground v.1.15,2013-04-08 22:40:00,
2013-04-08 18:50:00,61.8,41.9,30.03,SE,133,1.0,15.0,48,0.00,,,0.00,Wunderground v.1.15,2013-04-08 22:50:00,
2013-04-08 19:00:00,61.2,41.3,30.04,South,175,2.0,2.0,48,0.00,,,0.00,Wunderground v.1.15,2013-04-08 23:00:00,
2013-04-08 19:05:00,60.8,41.0,30.04,SSW,194,1.0,3.0,48,0.00,,,0.00,Wunderground v.1.15,2013-04-08 23:05:00,
2013-04-08 19:15:00,60.0,40.8,30.04,SSE,166,1.0,15.0,49,0.00,,,0.00,Wunderground v.1.15,2013-04-08 23:15:00,
2013-04-08 19:20:00,59.7,41.0,30.04,SE,138,1.0,15.0,50,0.00,,,0.00,Wunderground v.1.15,2013-04-08 23:20:00,
2013-04-08 19:30:00,59.0,40.9,30.04,South,173,0.0,15.0,51,0.00,,,0.00,Wunderground v.1.15,2013-04-08 23:30:00,
2013-04-08 19:40:00,58.2,41.1,30.04,SE,134,2.0,2.0,53,0.00,,,0.00,Wunderground v.1.15,2013-04-08 23:40:00,
2013-04-08 19:50:00,57.5,41.4,30.04,SE,139,1.0,15.0,55,0.00,,,0.00,Wunderground v.1.15,2013-04-08 23:50:00,
2013-04-08 20:00:00,56.9,42.3,30.05,SE,131,0.0,15.0,58,0.00,,,0.00,Wunderground v.1.15,2013-04-09 00:00:00,
2013-04-08 20:05:00,56.6,42.4,30.05,South,176,0.0,15.0,59,0.00,,,0.00,Wunderground v.1.15,2013-04-09 00:05:00,
2013-04-08 20:15:00,56.2,42.9,30.05,SSE,150,0.0,15.0,61,0.00,,,0.00,Wunderground v.1.15,2013-04-09 00:15:00,
2013-04-08 20:20:00,55.9,42.6,30.05,SSE,153,0.0,15.0,61,0.00,,,0.00,Wunderground v.1.15,2013-04-09 00:20:00,
2013-04-08 20:30:00,55.4,43.0,30.05,SSE,167,0.0,15.0,63,0.00,,,0.00,Wunderground v.1.15,2013-04-09 00:30:00,
2013-04-08 20:40:00,54.9,42.9,30.06,SSE,166,0.0,15.0,64,0.00,,,0.00,Wunderground v.1.15,2013-04-09 00:40:00,
2013-04-08 20:50:00,54.4,42.9,30.06,SSE,167,0.0,15.0,65,0.00,,,0.00,Wunderground v.1.15,2013-04-09 00:50:00,
2013-04-08 21:00:00,54.1,43.0,30.06,South,187,0.0,15.0,66,0.00,,,0.00,Wunderground v.1.15,2013-04-09 01:00:00,
2013-04-08 21:05:00,53.9,42.8,30.06,SE,143,0.0,15.0,66,0.00,,,0.00,Wunderground v.1.15,2013-04-09 01:05:00,
2013-04-08 21:15:00,53.5,42.8,30.06,SE,142,0.0,15.0,67,0.00,,,0.00,Wunderground v.1.15,2013-04-09 01:15:00,
2013-04-08 21:25:00,53.2,42.9,30.06,SE,143,0.0,15.0,68,0.00,,,0.00,Wunderground v.1.15,2013-04-09 01:25:00,
2013-04-08 21:35:00,53.0,42.7,30.06,SSE,154,0.0,15.0,68,0.00,,,0.00,Wunderground v.1.15,2013-04-09 01:35:00,
2013-04-08 21:45:00,52.5,42.6,30.06,SSE,154,0.0,15.0,69,0.00,,,0.00,Wunderground v.1.15,2013-04-09 01:45:00,
2013-04-08 21:55:00,52.2,42.7,30.06,SSE,155,0.0,15.0,70,0.00,,,0.00,Wunderground v.1.15,2013-04-09 01:55:00,
2013-04-08 22:00:00,52.1,42.6,30.07,SSE,155,0.0,15.0,70,0.00,,,0.00,Wunderground v.1.15,2013-04-09 02:00:00,
2013-04-08 22:05:00,52.3,42.4,30.07,SE,138,0.0,15.0,69,0.00,,,0.00,Wunderground v.1.15,2013-04-09 02:05:00,
2013-04-08 22:15:00,52.5,42.6,30.07,SSE,148,0.0,15.0,69,0.00,,,0.00,Wunderground v.1.15,2013-04-09 02:15:00,
2013-04-08 22:25:00,52.6,42.7,30.07,SSE,148,0.0,15.0,69,0.00,,,0.00,Wunderground v.1.15,2013-04-09 02:25:00,
2013-04-08 22:30:00,52.6,43.5,30.07,SE,139,0.0,15.0,71,0.00,,,0.00,Wunderground v.1.15,2013-04-09 02:30:00,
2013-04-08 22:35:00,52.4,43.3,30.06,SE,136,1.0,15.0,71,0.00,,,0.00,Wunderground v.1.15,2013-04-09 02:35:00,
2013-04-08 22:45:00,52.6,43.5,30.05,SE,131,1.0,15.0,71,0.00,,,0.00,Wunderground v.1.15,2013-04-09 02:45:00,
2013-04-08 22:55:00,53.1,43.2,30.04,ESE,121,3.0,15.0,69,0.00,,,0.00,Wunderground v.1.15,2013-04-09 02:55:00,
2013-04-08 23:00:00,53.1,43.2,30.04,South,184,3.0,3.0,69,0.00,,,0.00,Wunderground v.1.15,2013-04-09 03:00:00,
2013-04-08 23:10:00,53.1,43.2,30.05,South,169,1.0,1.0,69,0.00,,,0.00,Wunderground v.1.15,2013-04-09 03:10:00,
2013-04-08 23:20:00,53.0,43.8,30.04,SSE,159,0.0,15.0,71,0.00,,,0.00,Wunderground v.1.15,2013-04-09 03:20:00,
2013-04-08 23:30:00,52.8,43.7,30.05,SE,132,0.0,15.0,71,0.00,,,0.00,Wunderground v.1.15,2013-04-09 03:30:00,
2013-04-08 23:40:00,52.4,43.3,30.05,ESE,119,1.0,15.0,71,0.00,,,0.00,Wunderground v.1.15,2013-04-09 03:40:00,
2013-04-08 23:45:00,52.4,43.6,30.05,SE,135,2.0,15.0,72,0.00,,,0.00,Wunderground v.1.15,2013-04-09 03:45:00,
2013-04-08 23:55:00,52.2,43.1,30.05,SSE,154,3.0,15.0,71,0.00,,,0.00,Wunderground v.1.15,2013-04-09 03:55:00,